Time;durP1;ratioP1;P1;durP2;ratioP2;P2;SDS_P1;SDS_P2;PMS_P1;PMS_P2;Temp;Humidity;BMP_temperature;BMP_pressure;BME280_temperature;BME280_humidity;BME280_pressure;Samples;Min_cycle;Max_cycle;Signal;HPM_P1;HPM_P2
2023/08/13 00:02:09;;;;;;;18.10;2.42;;;;;;;;;;5026685;28;20033;-71
2023/08/13 00:04:35;;;;;;;13.18;2.13;;;;;;;;;;5027200;28;20450;-71
2023/08/13 00:07:01;;;;;;;13.55;2.35;;;;;;;;;;5026708;28;20037;-71
2023/08/13 00:09:27;;;;;;;15.55;3.33;;;;;;;;;;5026031;28;20091;-71
2023/08/13 00:11:54;;;;;;;20.38;3.45;;;;;;;;;;5028855;28;20447;-70
2023/08/13 00:14:20;;;;;;;16.60;3.70;;;;;;;;;;5024488;28;20108;-71
2023/08/13 00:16:47;;;;;;;15.73;3.28;;;;;;;;;;5024308;28;20072;-71
2023/08/13 00:19:13;;;;;;;13.32;2.10;;;;;;;;;;5027041;28;20038;-71
2023/08/13 00:21:39;;;;;;;13.85;2.40;;;;;;;;;;5025131;28;20056;-70
2023/08/13 00:24:05;;;;;;;11.52;2.15;;;;;;;;;;5026410;28;20029;-70
2023/08/13 00:26:32;;;;;;;12.10;3.20;;;;;;;;;;5028840;28;20419;-71
2023/08/13 00:28:58;;;;;;;9.43;3.05;;;;;;;;;;5026891;28;20037;-70
2023/08/13 00:31:24;;;;;;;14.10;2.70;;;;;;;;;;5026680;28;20072;-70
2023/08/13 00:33:50;;;;;;;17.63;3.50;;;;;;;;;;5028334;28;20511;-70
2023/08/13 00:36:16;;;;;;;15.40;2.75;;;;;;;;;;5028891;28;20041;-71
2023/08/13 00:38:42;;;;;;;13.30;3.05;;;;;;;;;;5026425;28;20040;-70
2023/08/13 00:41:08;;;;;;;12.52;2.72;;;;;;;;;;5040946;28;20030;-71
2023/08/13 00:43:37;;;;;;;13.27;3.03;;;;;;;;;;5025607;28;20479;-70
2023/08/13 00:46:03;;;;;;;15.05;2.90;;;;;;;;;;5024423;28;20430;-71
2023/08/13 00:48:29;;;;;;;19.00;4.32;;;;;;;;;;5025029;28;20479;-70
2023/08/13 00:50:56;;;;;;;12.15;2.17;;;;;;;;;;5028292;28;20045;-70
2023/08/13 00:53:23;;;;;;;14.10;2.83;;;;;;;;;;5027319;28;20030;-71
2023/08/13 00:55:49;;;;;;;18.73;3.85;;;;;;;;;;5027282;28;20037;-70
2023/08/13 00:58:15;;;;;;;14.10;2.53;;;;;;;;;;5027729;28;20120;-70
2023/08/13 01:00:41;;;;;;;14.65;2.58;;;;;;;;;;5025561;28;20473;-70
2023/08/13 01:03:07;;;;;;;16.23;2.67;;;;;;;;;;5022194;28;20528;-70
2023/08/13 01:05:50;;;;;;;20.25;3.35;;;;;;;;;;5024970;28;20041;-69
2023/08/13 01:08:26;;;;;;;20.13;3.33;;;;;;;;;;5021048;28;20041;-70
2023/08/13 01:10:57;;;;;;;17.63;3.45;;;;;;;;;;5025342;28;20487;-70
2023/08/13 01:13:31;;;;;;;18.88;3.38;;;;;;;;;;5026568;28;20039;-69
2023/08/13 01:15:58;;;;;;;16.80;3.28;;;;;;;;;;5023858;28;20045;-69
2023/08/13 01:18:25;;;;;;;15.90;3.53;;;;;;;;;;5024214;28;20041;-69
2023/08/13 01:20:51;;;;;;;17.17;3.00;;;;;;;;;;5039341;28;20231;-70
2023/08/13 01:23:17;;;;;;;20.90;3.30;;;;;;;;;;5025465;28;20121;-70
2023/08/13 01:25:46;;;;;;;25.65;4.65;;;;;;;;;;5025721;28;20033;-69
2023/08/13 01:28:21;;;;;;;12.63;1.95;;;;;;;;;;5026051;28;20029;-70
2023/08/13 01:30:57;;;;;;;14.32;2.58;;;;;;;;;;5025131;28;20021;-69
2023/08/13 01:33:28;;;;;;;13.02;2.75;;;;;;;;;;5027653;28;20040;-69
2023/08/13 01:35:59;;;;;;;15.65;3.67;;;;;;;;;;5030228;28;20033;-70
2023/08/13 01:38:25;;;;;;;12.93;3.35;;;;;;;;;;5022618;28;20033;-70
2023/08/13 01:40:51;;;;;;;18.27;2.80;;;;;;;;;;5035528;28;20496;-70
2023/08/13 01:43:17;;;;;;;18.55;3.85;;;;;;;;;;5024551;28;20033;-70
2023/08/13 01:45:44;;;;;;;15.43;2.58;;;;;;;;;;5024109;28;20480;-70
2023/08/13 01:48:10;;;;;;;9.55;2.92;;;;;;;;;;5026078;28;20041;-70
2023/08/13 01:50:38;;;;;;;12.30;2.72;;;;;;;;;;5022325;28;20068;-70
2023/08/13 01:53:05;;;;;;;15.82;2.90;;;;;;;;;;5025559;28;20116;-70
2023/08/13 01:55:31;;;;;;;11.82;2.83;;;;;;;;;;5025945;28;20041;-70
2023/08/13 01:57:57;;;;;;;17.05;3.38;;;;;;;;;;5022629;28;20045;-69
2023/08/13 02:00:23;;;;;;;18.30;3.28;;;;;;;;;;5026782;28;20038;-70
2023/08/13 02:02:49;;;;;;;15.52;3.50;;;;;;;;;;5020217;28;20395;-70
2023/08/13 02:05:15;;;;;;;15.25;3.55;;;;;;;;;;5024921;28;20045;-71
2023/08/13 02:07:41;;;;;;;21.42;4.72;;;;;;;;;;5040193;28;20041;-71
2023/08/13 02:10:07;;;;;;;15.93;3.63;;;;;;;;;;5022780;28;20130;-71
2023/08/13 02:12:33;;;;;;;18.70;4.05;;;;;;;;;;5022619;28;20029;-70
2023/08/13 02:14:59;;;;;;;17.02;3.58;;;;;;;;;;5023860;28;20087;-71
2023/08/13 02:17:25;;;;;;;19.40;3.05;;;;;;;;;;5025395;28;20600;-71
2023/08/13 02:19:51;;;;;;;22.27;3.15;;;;;;;;;;5038373;28;20500;-71
2023/08/13 02:22:17;;;;;;;13.20;3.13;;;;;;;;;;5023965;28;20148;-70
2023/08/13 02:24:43;;;;;;;20.20;3.78;;;;;;;;;;5025435;28;20075;-71
2023/08/13 02:27:09;;;;;;;13.60;3.38;;;;;;;;;;5024623;28;20045;-71
2023/08/13 02:29:35;;;;;;;13.90;3.25;;;;;;;;;;5030406;28;20041;-70
2023/08/13 02:32:01;;;;;;;20.75;3.45;;;;;;;;;;5023460;28;20040;-70
2023/08/13 02:34:27;;;;;;;14.88;3.75;;;;;;;;;;5023401;28;20506;-70
2023/08/13 02:36:53;;;;;;;17.45;3.35;;;;;;;;;;5019633;28;20037;-70
2023/08/13 02:39:19;;;;;;;13.60;2.90;;;;;;;;;;5023399;28;20056;-71
2023/08/13 02:41:45;;;;;;;21.10;3.72;;;;;;;;;;5025983;28;20033;-70
2023/08/13 02:44:11;;;;;;;18.45;3.88;;;;;;;;;;5023692;28;20419;-71
2023/08/13 02:46:37;;;;;;;15.98;4.20;;;;;;;;;;5025689;28;20040;-70
2023/08/13 02:49:03;;;;;;;16.42;3.08;;;;;;;;;;5022901;28;20033;-71
2023/08/13 02:51:29;;;;;;;17.75;3.70;;;;;;;;;;5022967;28;20060;-71
2023/08/13 02:53:55;;;;;;;15.02;4.13;;;;;;;;;;5023194;28;20118;-70
2023/08/13 02:56:21;;;;;;;20.50;3.78;;;;;;;;;;5024470;28;20076;-70
2023/08/13 02:58:47;;;;;;;28.58;3.90;;;;;;;;;;5023092;28;20049;-71
2023/08/13 03:01:14;;;;;;;20.27;3.35;;;;;;;;;;5024704;28;20048;-70
2023/08/13 03:03:40;;;;;;;16.95;4.22;;;;;;;;;;5020367;28;20030;-70
2023/08/13 03:06:06;;;;;;;21.80;4.15;;;;;;;;;;5023181;28;20047;-71
2023/08/13 03:08:32;;;;;;;15.20;3.33;;;;;;;;;;5025699;28;20037;-71
2023/08/13 03:10:58;;;;;;;42.70;18.33;;;;;;;;;;5029006;28;20038;-74
2023/08/13 03:13:24;;;;;;;21.88;7.00;;;;;;;;;;5027683;28;20490;-74
2023/08/13 03:15:50;;;;;;;17.48;3.83;;;;;;;;;;5028358;28;20113;-73
2023/08/13 03:18:16;;;;;;;18.00;3.38;;;;;;;;;;5022773;28;20037;-74
2023/08/13 03:20:42;;;;;;;17.38;3.72;;;;;;;;;;5025270;28;20113;-71
2023/08/13 03:23:08;;;;;;;15.45;2.90;;;;;;;;;;5030177;28;20032;-71
2023/08/13 03:25:34;;;;;;;16.83;3.05;;;;;;;;;;5025625;28;20064;-70
2023/08/13 03:28:00;;;;;;;14.50;2.92;;;;;;;;;;5028331;28;20029;-71
2023/08/13 03:30:26;;;;;;;16.38;3.53;;;;;;;;;;5029233;28;20025;-70
2023/08/13 03:32:52;;;;;;;17.95;3.67;;;;;;;;;;5027672;28;20280;-71
2023/08/13 03:35:18;;;;;;;18.98;3.70;;;;;;;;;;5026794;28;20584;-71
2023/08/13 03:37:44;;;;;;;16.30;4.13;;;;;;;;;;5026521;28;20041;-70
2023/08/13 03:40:10;;;;;;;15.73;3.38;;;;;;;;;;5028418;28;20045;-71
2023/08/13 03:42:36;;;;;;;18.40;3.45;;;;;;;;;;5030556;28;20026;-71
2023/08/13 03:45:02;;;;;;;15.63;3.17;;;;;;;;;;5027303;28;20065;-71
2023/08/13 03:47:28;;;;;;;19.10;3.88;;;;;;;;;;5019002;28;20037;-71
2023/08/13 03:49:54;;;;;;;16.45;2.90;;;;;;;;;;5026949;28;20041;-71
2023/08/13 03:52:20;;;;;;;18.05;3.63;;;;;;;;;;5029211;28;20056;-72
2023/08/13 03:54:46;;;;;;;19.88;3.38;;;;;;;;;;5027154;28;20116;-71
2023/08/13 03:57:12;;;;;;;14.32;4.00;;;;;;;;;;5024807;28;20037;-72
2023/08/13 03:59:38;;;;;;;20.25;3.90;;;;;;;;;;5026882;28;20049;-71
2023/08/13 04:02:04;;;;;;;16.20;3.60;;;;;;;;;;5025317;28;20036;-74
2023/08/13 04:04:30;;;;;;;15.45;3.63;;;;;;;;;;5028650;28;20121;-74
2023/08/13 04:06:56;;;;;;;22.13;5.03;;;;;;;;;;5022118;28;20117;-72
2023/08/13 04:09:22;;;;;;;19.40;3.20;;;;;;;;;;5037345;28;20087;-72
2023/08/13 04:11:49;;;;;;;22.02;4.80;;;;;;;;;;5023351;28;20394;-72
2023/08/13 04:14:15;;;;;;;21.30;3.28;;;;;;;;;;5022734;28;20033;-71
2023/08/13 04:16:41;;;;;;;17.73;3.13;;;;;;;;;;5023375;28;20101;-72
2023/08/13 04:19:07;;;;;;;17.85;3.28;;;;;;;;;;5026495;28;20108;-73
2023/08/13 04:21:33;;;;;;;18.60;3.58;;;;;;;;;;5026242;28;20033;-72
2023/08/13 04:23:59;;;;;;;12.60;2.92;;;;;;;;;;5040141;28;20037;-71
2023/08/13 04:26:25;;;;;;;20.80;3.30;;;;;;;;;;5039241;28;20364;-71
2023/08/13 04:28:52;;;;;;;19.20;7.00;;;;;;;;;;5020695;28;20037;-74
2023/08/13 04:31:20;;;;;;;31.67;16.40;;;;;;;;;;5039564;28;20025;-75
2023/08/13 04:33:46;;;;;;;52.67;28.20;;;;;;;;;;5024595;28;20061;-75
2023/08/13 04:36:12;;;;;;;16.98;3.45;;;;;;;;;;5022694;28;20033;-72
2023/08/13 04:38:38;;;;;;;20.42;3.15;;;;;;;;;;5039453;28;20487;-71
2023/08/13 04:41:05;;;;;;;16.40;3.42;;;;;;;;;;5024452;28;20454;-71
2023/08/13 04:43:31;;;;;;;15.82;3.83;;;;;;;;;;5036804;28;20083;-71
2023/08/13 04:45:57;;;;;;;19.40;3.38;;;;;;;;;;5021464;28;20068;-72
2023/08/13 04:48:43;;;;;;;20.25;3.75;;;;;;;;;;5017632;28;20017;-73
2023/08/13 04:51:09;;;;;;;17.05;3.00;;;;;;;;;;5035193;28;20118;-72
2023/08/13 04:53:35;;;;;;;21.38;3.10;;;;;;;;;;5020549;28;20379;-71
2023/08/13 04:56:01;;;;;;;18.40;3.05;;;;;;;;;;5017959;28;20320;-71
2023/08/13 04:58:27;;;;;;;24.67;8.95;;;;;;;;;;5020879;28;20037;-72
2023/08/13 05:00:53;;;;;;;57.25;32.58;;;;;;;;;;5021881;28;20025;-73
2023/08/13 05:03:19;;;;;;;14.63;3.75;;;;;;;;;;5022373;28;20144;-72
2023/08/13 05:05:46;;;;;;;16.13;3.85;;;;;;;;;;5021529;28;20052;-72
2023/08/13 05:08:12;;;;;;;16.45;3.10;;;;;;;;;;5039728;28;20090;-72
2023/08/13 05:10:38;;;;;;;20.17;4.25;;;;;;;;;;5022626;28;20060;-72
2023/08/13 05:13:04;;;;;;;16.80;2.67;;;;;;;;;;5020191;28;20050;-71
2023/08/13 05:15:30;;;;;;;24.15;3.55;;;;;;;;;;5019118;28;20487;-70
2023/08/13 05:17:57;;;;;;;19.83;3.55;;;;;;;;;;5025670;28;20038;-70
2023/08/13 05:20:24;;;;;;;22.52;4.75;;;;;;;;;;5025911;28;20064;-71
2023/08/13 05:22:50;;;;;;;11.65;3.10;;;;;;;;;;5025766;28;20664;-71
2023/08/13 05:25:16;;;;;;;15.18;3.63;;;;;;;;;;5025415;28;20487;-71
2023/08/13 05:27:42;;;;;;;14.55;3.03;;;;;;;;;;5026121;28;20422;-70
2023/08/13 05:30:09;;;;;;;17.55;3.85;;;;;;;;;;5025226;28;20105;-71
2023/08/13 05:32:35;;;;;;;19.73;4.00;;;;;;;;;;5025248;28;20033;-70
2023/08/13 05:35:02;;;;;;;19.17;3.65;;;;;;;;;;5023124;28;20929;-70
2023/08/13 05:37:28;;;;;;;13.85;3.15;;;;;;;;;;5025354;28;20041;-70
2023/08/13 05:39:54;;;;;;;14.30;3.33;;;;;;;;;;5020088;28;20502;-71
2023/08/13 05:42:21;;;;;;;22.02;4.72;;;;;;;;;;5025424;28;20034;-71
2023/08/13 05:44:47;;;;;;;15.32;3.60;;;;;;;;;;5011557;28;20053;-71
2023/08/13 05:47:13;;;;;;;17.80;3.20;;;;;;;;;;5027219;28;20536;-71
2023/08/13 05:49:39;;;;;;;17.40;3.22;;;;;;;;;;5030494;28;20099;-71
2023/08/13 05:52:05;;;;;;;12.35;3.08;;;;;;;;;;5021261;28;20054;-70
2023/08/13 05:54:31;;;;;;;20.50;3.75;;;;;;;;;;5024449;28;20041;-71
2023/08/13 05:56:57;;;;;;;20.73;3.42;;;;;;;;;;5025403;28;20030;-71
2023/08/13 05:59:23;;;;;;;14.15;2.70;;;;;;;;;;5022773;28;20562;-71
2023/08/13 06:01:49;;;;;;;21.40;3.60;;;;;;;;;;5019282;28;20047;-71
2023/08/13 06:04:16;;;;;;;15.55;3.78;;;;;;;;;;5023276;28;20531;-71
2023/08/13 06:06:41;;;;;;;15.63;3.40;;;;;;;;;;5023123;28;20673;-71
2023/08/13 06:09:09;;;;;;;17.17;4.38;;;;;;;;;;5025253;28;20580;-72
2023/08/13 06:11:35;;;;;;;10.02;2.95;;;;;;;;;;5024177;28;20032;-71
2023/08/13 06:14:01;;;;;;;15.90;4.18;;;;;;;;;;5024069;28;20033;-71
2023/08/13 06:16:27;;;;;;;19.92;3.78;;;;;;;;;;5025623;28;20041;-70
2023/08/13 06:18:53;;;;;;;17.67;4.65;;;;;;;;;;5023336;28;20057;-70
2023/08/13 06:21:19;;;;;;;13.40;3.30;;;;;;;;;;5027209;28;20026;-70
2023/08/13 06:23:45;;;;;;;15.20;3.47;;;;;;;;;;5021687;28;20044;-71
2023/08/13 06:26:11;;;;;;;15.95;4.03;;;;;;;;;;5024352;28;20037;-70
2023/08/13 06:28:38;;;;;;;13.15;3.70;;;;;;;;;;5025513;28;20439;-71
2023/08/13 06:31:05;;;;;;;17.52;3.67;;;;;;;;;;5025501;28;20048;-70
2023/08/13 06:33:31;;;;;;;17.02;3.88;;;;;;;;;;5038904;28;20501;-70
2023/08/13 06:35:57;;;;;;;13.52;3.28;;;;;;;;;;5024575;28;20121;-70
2023/08/13 06:38:25;;;;;;;13.90;3.25;;;;;;;;;;5024041;28;20121;-70
2023/08/13 06:40:51;;;;;;;14.43;3.72;;;;;;;;;;5025560;28;20054;-70
2023/08/13 06:43:17;;;;;;;12.75;3.47;;;;;;;;;;5030761;28;20330;-70
2023/08/13 06:45:43;;;;;;;12.10;3.45;;;;;;;;;;5023359;28;20091;-70
2023/08/13 06:48:10;;;;;;;10.00;3.25;;;;;;;;;;5023578;28;20072;-70
2023/08/13 06:50:36;;;;;;;14.15;3.83;;;;;;;;;;5023904;28;20602;-71
2023/08/13 06:53:02;;;;;;;14.00;3.25;;;;;;;;;;5023887;28;20144;-70
2023/08/13 06:55:28;;;;;;;13.25;3.28;;;;;;;;;;5023369;28;20610;-73
2023/08/13 06:57:54;;;;;;;15.63;3.50;;;;;;;;;;5014802;28;20397;-70
2023/08/13 07:00:21;;;;;;;17.10;4.03;;;;;;;;;;5020892;28;20033;-70
2023/08/13 07:02:48;;;;;;;12.15;4.05;;;;;;;;;;5024031;28;20222;-71
2023/08/13 07:05:16;;;;;;;17.95;3.72;;;;;;;;;;5023174;28;20021;-71
2023/08/13 07:07:42;;;;;;;12.95;3.70;;;;;;;;;;5022935;28;20299;-71
2023/08/13 07:10:08;;;;;;;13.90;3.63;;;;;;;;;;5023622;28;20045;-71
2023/08/13 07:12:35;;;;;;;13.73;3.42;;;;;;;;;;5022700;28;20040;-72
2023/08/13 07:15:03;;;;;;;22.02;3.30;;;;;;;;;;5021726;28;20041;-72
2023/08/13 07:17:30;;;;;;;13.60;3.08;;;;;;;;;;5023435;28;20399;-71
2023/08/13 07:19:56;;;;;;;13.75;3.20;;;;;;;;;;5021481;28;20037;-71
2023/08/13 07:22:22;;;;;;;13.40;2.70;;;;;;;;;;5022043;28;20033;-72
2023/08/13 07:24:48;;;;;;;24.92;3.45;;;;;;;;;;5037693;28;20112;-71
2023/08/13 07:27:14;;;;;;;19.15;3.35;;;;;;;;;;5023506;28;20037;-71
2023/08/13 07:29:40;;;;;;;16.33;3.35;;;;;;;;;;5021996;28;20108;-72
2023/08/13 07:32:06;;;;;;;10.98;3.08;;;;;;;;;;5024138;28;20018;-71
2023/08/13 07:34:32;;;;;;;15.40;3.50;;;;;;;;;;5023452;28;20079;-71
2023/08/13 07:36:58;;;;;;;14.48;2.60;;;;;;;;;;5024335;28;20029;-71
2023/08/13 07:39:25;;;;;;;14.05;3.08;;;;;;;;;;5021389;28;20034;-71
2023/08/13 07:41:51;;;;;;;13.23;3.30;;;;;;;;;;5022725;28;20446;-70
2023/08/13 07:44:17;;;;;;;12.82;2.65;;;;;;;;;;5022976;28;20348;-72
2023/08/13 07:46:43;;;;;;;17.92;3.08;;;;;;;;;;5022770;28;20594;-72
2023/08/13 07:49:09;;;;;;;12.77;2.97;;;;;;;;;;5018343;28;20126;-72
2023/08/13 07:51:35;;;;;;;11.07;2.90;;;;;;;;;;5022268;28;20100;-72
2023/08/13 07:54:01;;;;;;;9.88;2.20;;;;;;;;;;5021142;28;20026;-72
2023/08/13 07:56:27;;;;;;;12.77;2.70;;;;;;;;;;5021962;28;20022;-72
2023/08/13 07:58:53;;;;;;;12.88;3.05;;;;;;;;;;5027155;28;20042;-72
2023/08/13 08:01:19;;;;;;;14.80;2.33;;;;;;;;;;5023692;28;20094;-73
2023/08/13 08:03:45;;;;;;;11.25;2.20;;;;;;;;;;5021635;28;20121;-75
2023/08/13 08:06:14;;;;;;;13.02;3.22;;;;;;;;;;5028473;28;20492;-75
2023/08/13 08:08:40;;;;;;;13.75;2.40;;;;;;;;;;5024208;28;20044;-75
2023/08/13 08:11:06;;;;;;;9.15;2.10;;;;;;;;;;5027853;28;20379;-75
2023/08/13 08:13:32;;;;;;;11.93;2.50;;;;;;;;;;5029167;28;20187;-74
2023/08/13 08:15:59;;;;;;;9.13;1.95;;;;;;;;;;5028726;28;20029;-75
2023/08/13 08:18:25;;;;;;;10.85;2.15;;;;;;;;;;5020952;28;20081;-75
2023/08/13 08:20:51;;;;;;;17.35;5.75;;;;;;;;;;5027929;28;20025;-76
2023/08/13 08:23:18;;;;;;;25.63;11.23;;;;;;;;;;5029732;28;20037;-76
2023/08/13 08:25:44;;;;;;;8.27;1.95;;;;;;;;;;5028120;28;20021;-75
2023/08/13 08:28:11;;;;;;;11.57;2.25;;;;;;;;;;5031724;28;20386;-75
2023/08/13 08:30:37;;;;;;;8.98;2.10;;;;;;;;;;5029818;28;20086;-75
2023/08/13 08:33:03;;;;;;;12.25;2.50;;;;;;;;;;5043428;28;20123;-75
2023/08/13 08:35:30;;;;;;;8.13;2.22;;;;;;;;;;5029159;28;20487;-75
2023/08/13 08:37:56;;;;;;;13.48;2.30;;;;;;;;;;5030077;28;20121;-75
2023/08/13 08:40:22;;;;;;;8.07;2.10;;;;;;;;;;5030072;28;20120;-74
2023/08/13 08:42:49;;;;;;;7.72;1.80;;;;;;;;;;5028923;28;20550;-74
2023/08/13 08:45:16;;;;;;;11.43;1.80;;;;;;;;;;5028279;28;20057;-73
2023/08/13 08:47:43;;;;;;;13.25;3.78;;;;;;;;;;5017267;28;20021;-76
2023/08/13 08:50:13;;;;;;;16.40;7.03;;;;;;;;;;5028286;28;20060;-76
2023/08/13 08:52:39;;;;;;;10.40;3.45;;;;;;;;;;5031649;28;20027;-75
2023/08/13 08:55:05;;;;;;;6.47;1.70;;;;;;;;;;5031723;28;20083;-74
2023/08/13 08:57:31;;;;;;;8.48;2.10;;;;;;;;;;5028279;28;20029;-75
2023/08/13 08:59:57;;;;;;;9.15;1.77;;;;;;;;;;5028093;28;20041;-73
2023/08/13 09:02:23;;;;;;;11.40;2.10;;;;;;;;;;5028636;28;20223;-73
2023/08/13 09:04:49;;;;;;;12.63;3.03;;;;;;;;;;5014369;28;20034;-73
2023/08/13 09:07:15;;;;;;;9.77;1.50;;;;;;;;;;5028736;28;20033;-73
2023/08/13 09:09:43;;;;;;;6.95;1.70;;;;;;;;;;5027445;28;20107;-77
2023/08/13 09:12:09;;;;;;;11.85;1.77;;;;;;;;;;5023682;28;20040;-78
2023/08/13 09:14:36;;;;;;;10.20;2.25;;;;;;;;;;5022369;28;20029;-77
2023/08/13 09:17:02;;;;;;;8.65;1.92;;;;;;;;;;5023453;28;20042;-79
2023/08/13 09:19:28;;;;;;;10.30;2.00;;;;;;;;;;5028013;28;20116;-78
2023/08/13 09:21:56;;;;;;;8.27;1.73;;;;;;;;;;5028742;28;20091;-77
2023/08/13 09:24:32;;;;;;;9.40;1.52;;;;;;;;;;5025380;28;20030;-77
2023/08/13 09:26:58;;;;;;;8.15;2.35;;;;;;;;;;5028254;28;20028;-76
2023/08/13 09:29:26;;;;;;;5.40;1.40;;;;;;;;;;5025878;28;20060;-76
2023/08/13 09:31:52;;;;;;;8.68;1.80;;;;;;;;;;5028748;28;20035;-76
2023/08/13 09:34:21;;;;;;;10.50;2.03;;;;;;;;;;5018206;28;20037;-77
2023/08/13 09:36:47;;;;;;;8.65;2.25;;;;;;;;;;5027488;28;20079;-79
2023/08/13 09:39:13;;;;;;;9.45;1.88;;;;;;;;;;5031799;28;20057;-79
2023/08/13 09:41:39;;;;;;;8.85;2.20;;;;;;;;;;5028854;28;20438;-77
2023/08/13 09:44:09;;;;;;;6.47;1.88;;;;;;;;;;5028294;28;20387;-79
2023/08/13 09:46:35;;;;;;;8.00;1.75;;;;;;;;;;5026908;28;20053;-76
2023/08/13 09:49:09;;;;;;;7.47;1.60;;;;;;;;;;5029189;28;20076;-79
2023/08/13 09:51:37;;;;;;;6.70;1.90;;;;;;;;;;5025140;28;20044;-77
2023/08/13 09:54:09;;;;;;;10.73;3.60;;;;;;;;;;5024126;28;20034;-80
2023/08/13 09:56:36;;;;;;;20.13;7.50;;;;;;;;;;5026887;28;20042;-82
2023/08/13 09:59:02;;;;;;;14.30;2.25;;;;;;;;;;5024701;28;20038;-74
2023/08/13 10:01:29;;;;;;;10.80;2.05;;;;;;;;;;5017440;28;20495;-73
2023/08/13 10:03:55;;;;;;;14.00;2.42;;;;;;;;;;5015544;28;20021;-74
2023/08/13 10:06:21;;;;;;;4.65;1.50;;;;;;;;;;5024895;28;20117;-74
2023/08/13 10:08:48;;;;;;;6.90;1.90;;;;;;;;;;5026094;28;20068;-73
2023/08/13 10:11:14;;;;;;;8.70;2.03;;;;;;;;;;5028430;28;20153;-74
2023/08/13 10:13:40;;;;;;;7.68;1.45;;;;;;;;;;5029393;28;20022;-73
2023/08/13 10:16:07;;;;;;;6.47;1.50;;;;;;;;;;5022438;28;20485;-75
2023/08/13 10:18:34;;;;;;;6.28;1.73;;;;;;;;;;5018233;28;20518;-73
2023/08/13 10:21:00;;;;;;;7.75;1.75;;;;;;;;;;5001072;28;20103;-72
2023/08/13 10:23:27;;;;;;;5.72;1.45;;;;;;;;;;5004008;28;20366;-74
2023/08/13 10:25:53;;;;;;;6.05;1.52;;;;;;;;;;5021325;28;20506;-73
2023/08/13 10:28:32;;;;;;;5.95;1.20;;;;;;;;;;5016394;28;20021;-73
2023/08/13 10:31:17;;;;;;;4.18;1.48;;;;;;;;;;5017275;28;20037;-73
2023/08/13 10:33:45;;;;;;;37.05;20.08;;;;;;;;;;5020903;28;20647;-74
2023/08/13 10:36:11;;;;;;;14.50;7.65;;;;;;;;;;5022761;28;20042;-75
2023/08/13 10:38:38;;;;;;;6.10;1.42;;;;;;;;;;5017184;28;20052;-74
2023/08/13 10:41:05;;;;;;;8.27;1.83;;;;;;;;;;5013779;28;20045;-72
2023/08/13 10:43:33;;;;;;;4.00;1.15;;;;;;;;;;5023540;28;20489;-73
2023/08/13 10:46:00;;;;;;;4.88;1.25;;;;;;;;;;5037226;28;20037;-74
2023/08/13 10:48:30;;;;;;;5.47;1.50;;;;;;;;;;5023868;28;20033;-72
2023/08/13 10:50:57;;;;;;;7.85;1.60;;;;;;;;;;5018984;28;20064;-72
2023/08/13 10:53:27;;;;;;;5.38;1.40;;;;;;;;;;5022376;28;20301;-72
2023/08/13 10:55:54;;;;;;;6.50;1.60;;;;;;;;;;5023948;28;20116;-73
2023/08/13 10:58:30;;;;;;;7.95;1.40;;;;;;;;;;5022830;28;20144;-72
2023/08/13 11:00:59;;;;;;;6.35;1.45;;;;;;;;;;5020726;28;20112;-73
2023/08/13 11:03:32;;;;;;;7.97;1.30;;;;;;;;;;5022769;28;21293;-73
2023/08/13 11:05:59;;;;;;;6.07;1.15;;;;;;;;;;5021418;28;20038;-73
2023/08/13 11:08:25;;;;;;;4.47;1.10;;;;;;;;;;5012670;28;20036;-74
2023/08/13 11:10:52;;;;;;;6.88;2.22;;;;;;;;;;5023248;28;20452;-75
2023/08/13 11:13:19;;;;;;;4.90;2.25;;;;;;;;;;5023959;28;20574;-75
2023/08/13 11:15:52;;;;;;;7.90;1.48;;;;;;;;;;5017494;28;20034;-74
2023/08/13 11:18:18;;;;;;;5.13;1.88;;;;;;;;;;5018802;28;20394;-74
2023/08/13 11:20:45;;;;;;;9.82;6.38;;;;;;;;;;5019909;28;20048;-75
2023/08/13 11:23:14;;;;;;;5.35;1.08;;;;;;;;;;5018589;28;20104;-73
2023/08/13 11:25:40;;;;;;;2.47;0.82;;;;;;;;;;5038246;28;20041;-73
2023/08/13 11:28:06;;;;;;;5.70;1.20;;;;;;;;;;5018969;28;20038;-73
2023/08/13 11:30:32;;;;;;;3.03;0.80;;;;;;;;;;5021888;28;20035;-72
2023/08/13 11:32:59;;;;;;;9.43;1.20;;;;;;;;;;5019933;28;20069;-74
2023/08/13 11:35:25;;;;;;;6.30;1.33;;;;;;;;;;5040848;28;20479;-73
2023/08/13 11:37:51;;;;;;;3.40;1.05;;;;;;;;;;5021126;28;20147;-76
2023/08/13 11:40:17;;;;;;;8.90;1.65;;;;;;;;;;5025918;28;20064;-75
2023/08/13 11:42:53;;;;;;;4.95;1.70;;;;;;;;;;5026118;28;20025;-75
2023/08/13 11:45:20;;;;;;;4.82;1.00;;;;;;;;;;5025356;28;20219;-74
2023/08/13 11:47:46;;;;;;;5.10;1.58;;;;;;;;;;5021711;28;20383;-75
2023/08/13 11:50:23;;;;;;;5.10;1.15;;;;;;;;;;5013686;28;20033;-73
2023/08/13 11:53:05;;;;;;;3.85;0.98;;;;;;;;;;5036107;28;20090;-74
2023/08/13 11:55:32;;;;;;;3.33;0.82;;;;;;;;;;5021631;28;20029;-75
2023/08/13 11:57:58;;;;;;;3.88;1.20;;;;;;;;;;5025635;28;20136;-76
2023/08/13 12:00:28;;;;;;;4.78;1.30;;;;;;;;;;5028001;28;20037;-75
2023/08/13 12:02:57;;;;;;;7.28;1.10;;;;;;;;;;5024138;28;20105;-75
2023/08/13 12:05:27;;;;;;;4.43;1.38;;;;;;;;;;5023053;28;20037;-76
2023/08/13 12:07:53;;;;;;;9.43;1.23;;;;;;;;;;5038384;28;20444;-74
2023/08/13 12:10:20;;;;;;;3.00;1.02;;;;;;;;;;5025388;28;20026;-74
2023/08/13 12:12:46;;;;;;;4.35;0.98;;;;;;;;;;5024242;28;20021;-76
2023/08/13 12:15:12;;;;;;;5.65;1.20;;;;;;;;;;5024443;28;20034;-77
2023/08/13 12:17:38;;;;;;;2.97;1.00;;;;;;;;;;5023132;28;20109;-76
2023/08/13 12:20:04;;;;;;;4.47;0.88;;;;;;;;;;5023860;28;20107;-75
2023/08/13 12:22:30;;;;;;;3.67;1.10;;;;;;;;;;5025350;28;20601;-73
2023/08/13 12:24:56;;;;;;;3.88;0.82;;;;;;;;;;5023656;28;20028;-73
2023/08/13 12:27:22;;;;;;;4.75;1.20;;;;;;;;;;5024269;28;20041;-75
2023/08/13 12:29:48;;;;;;;2.55;0.77;;;;;;;;;;5020118;28;20026;-76
2023/08/13 12:32:14;;;;;;;2.40;1.10;;;;;;;;;;5019374;28;21596;-76
2023/08/13 12:34:40;;;;;;;4.43;0.93;;;;;;;;;;5017889;28;20021;-74
2023/08/13 12:37:06;;;;;;;5.55;0.93;;;;;;;;;;5020982;28;20399;-79
2023/08/13 12:39:32;;;;;;;4.40;0.70;;;;;;;;;;5023697;28;20124;-75
2023/08/13 12:41:58;;;;;;;3.08;1.30;;;;;;;;;;5021816;28;20119;-81
2023/08/13 12:44:24;;;;;;;3.40;1.33;;;;;;;;;;5020869;28;20547;-80
2023/08/13 12:46:50;;;;;;;1.10;0.93;;;;;;;;;;5017964;28;20056;-74
2023/08/13 12:49:16;;;;;;;3.35;1.35;;;;;;;;;;5020919;28;20175;-76
2023/08/13 12:51:42;;;;;;;5.20;1.13;;;;;;;;;;5025978;28;20108;-73
2023/08/13 12:54:08;;;;;;;3.92;1.00;;;;;;;;;;5029350;28;20200;-76
2023/08/13 12:56:34;;;;;;;2.38;0.80;;;;;;;;;;5025465;28;20120;-74
2023/08/13 12:59:00;;;;;;;1.75;0.60;;;;;;;;;;5025615;28;20121;-71
2023/08/13 13:01:26;;;;;;;3.78;0.90;;;;;;;;;;5029591;28;20034;-74
2023/08/13 13:03:52;;;;;;;1.65;0.50;;;;;;;;;;5029107;28;20387;-76
2023/08/13 13:06:18;;;;;;;2.63;1.02;;;;;;;;;;5027873;28;20044;-74
2023/08/13 13:08:44;;;;;;;2.22;0.65;;;;;;;;;;5028526;28;20039;-74
2023/08/13 13:11:10;;;;;;;3.15;0.70;;;;;;;;;;5030080;28;20113;-74
2023/08/13 13:13:36;;;;;;;2.47;0.80;;;;;;;;;;5025804;28;20522;-73
2023/08/13 13:16:02;;;;;;;4.05;1.00;;;;;;;;;;5020795;28;20030;-79
2023/08/13 13:18:28;;;;;;;7.57;3.00;;;;;;;;;;5018705;28;20053;-77
2023/08/13 13:20:54;;;;;;;3.10;0.68;;;;;;;;;;5024492;28;20083;-81
2023/08/13 13:23:21;;;;;;;4.28;1.00;;;;;;;;;;5026237;28;20069;-82
2023/08/13 13:25:47;;;;;;;2.10;0.60;;;;;;;;;;5023148;28;20634;-73
2023/08/13 13:28:13;;;;;;;5.63;1.85;;;;;;;;;;5025248;28;20076;-74
2023/08/13 13:30:39;;;;;;;6.60;2.08;;;;;;;;;;5018209;28;20042;-72
2023/08/13 13:33:05;;;;;;;3.08;0.73;;;;;;;;;;5020669;28;20045;-72
2023/08/13 13:35:31;;;;;;;5.55;0.80;;;;;;;;;;5024648;28;20041;-75
2023/08/13 13:37:58;;;;;;;3.47;0.98;;;;;;;;;;5023525;28;20034;-74
2023/08/13 13:40:24;;;;;;;3.47;0.93;;;;;;;;;;5019052;28;20041;-73
2023/08/13 13:42:51;;;;;;;2.83;0.50;;;;;;;;;;5019848;28;20030;-75
2023/08/13 13:45:18;;;;;;;1.67;0.80;;;;;;;;;;5022660;28;20040;-76
2023/08/13 13:47:44;;;;;;;5.63;1.25;;;;;;;;;;5021986;28;20474;-76
2023/08/13 13:50:11;;;;;;;4.13;1.20;;;;;;;;;;5022918;28;21085;-77
2023/08/13 13:52:37;;;;;;;4.30;1.17;;;;;;;;;;5018833;28;20027;-71
2023/08/13 13:55:03;;;;;;;8.95;1.00;;;;;;;;;;5017214;28;20586;-71
2023/08/13 13:57:29;;;;;;;3.58;1.38;;;;;;;;;;5021575;28;20034;-71
2023/08/13 13:59:55;;;;;;;3.50;0.82;;;;;;;;;;5021224;28;20037;-74
2023/08/13 14:02:21;;;;;;;4.68;1.00;;;;;;;;;;5020680;28;20037;-72
2023/08/13 14:04:47;;;;;;;4.32;1.25;;;;;;;;;;5022615;28;20619;-72
2023/08/13 14:07:13;;;;;;;3.53;0.93;;;;;;;;;;5019543;28;20036;-71
2023/08/13 14:09:39;;;;;;;4.13;0.90;;;;;;;;;;5023707;28;20048;-74
2023/08/13 14:12:06;;;;;;;5.40;1.00;;;;;;;;;;5021262;28;20116;-72
2023/08/13 14:14:32;;;;;;;10.27;1.30;;;;;;;;;;5021696;28;20131;-73
2023/08/13 14:16:58;;;;;;;5.57;1.65;;;;;;;;;;5015746;28;20037;-71
2023/08/13 14:19:24;;;;;;;7.65;1.60;;;;;;;;;;5020286;28;20049;-73
2023/08/13 14:21:50;;;;;;;8.40;1.83;;;;;;;;;;5021526;28;20515;-72
2023/08/13 14:24:19;;;;;;;8.60;1.70;;;;;;;;;;5019345;28;20162;-72
2023/08/13 14:26:49;;;;;;;9.38;1.77;;;;;;;;;;5018757;28;20041;-73
2023/08/13 14:29:15;;;;;;;10.43;2.08;;;;;;;;;;5023795;28;20034;-71
2023/08/13 14:31:41;;;;;;;5.68;1.27;;;;;;;;;;5018562;28;21984;-73